sensor_id;sensor_type;location;lat;lon;timestamp;P1;durP1;ratioP1;P2;durP2;ratioP2
19965;SDS011;10144;50.874;4.762;2024-01-30T00:05:53;12.67;;;5.80;;
19965;SDS011;10144;50.874;4.762;2024-01-30T00:08:20;11.27;;;5.23;;
19965;SDS011;10144;50.874;4.762;2024-01-30T00:10:49;12.50;;;5.63;;
19965;SDS011;10144;50.874;4.762;2024-01-30T00:15:45;9.77;;;5.73;;
19965;SDS011;10144;50.874;4.762;2024-01-30T00:21:23;12.20;;;5.23;;
19965;SDS011;10144;50.874;4.762;2024-01-30T00:23:51;10.43;;;5.40;;
19965;SDS011;10144;50.874;4.762;2024-01-30T00:26:19;10.33;;;5.07;;
19965;SDS011;10144;50.874;4.762;2024-01-30T00:28:48;10.90;;;5.13;;
19965;SDS011;10144;50.874;4.762;2024-01-30T00:31:17;12.80;;;5.67;;
19965;SDS011;10144;50.874;4.762;2024-01-30T00:33:46;11.40;;;4.77;;
19965;SDS011;10144;50.874;4.762;2024-01-30T00:36:26;11.40;;;4.97;;
19965;SDS011;10144;50.874;4.762;2024-01-30T00:38:58;11.00;;;5.27;;
19965;SDS011;10144;50.874;4.762;2024-01-30T00:41:24;10.97;;;5.37;;
19965;SDS011;10144;50.874;4.762;2024-01-30T00:43:52;12.53;;;5.40;;
19965;SDS011;10144;50.874;4.762;2024-01-30T00:46:20;10.57;;;5.63;;
19965;SDS011;10144;50.874;4.762;2024-01-30T00:48:49;11.07;;;5.77;;
19965;SDS011;10144;50.874;4.762;2024-01-30T00:51:15;10.63;;;5.00;;
19965;SDS011;10144;50.874;4.762;2024-01-30T00:53:47;11.13;;;5.30;;
19965;SDS011;10144;50.874;4.762;2024-01-30T00:56:14;10.03;;;4.73;;
19965;SDS011;10144;50.874;4.762;2024-01-30T00:58:46;13.67;;;5.23;;
19965;SDS011;10144;50.874;4.762;2024-01-30T01:01:13;9.77;;;4.70;;
19965;SDS011;10144;50.874;4.762;2024-01-30T01:03:42;9.87;;;5.23;;
19965;SDS011;10144;50.874;4.762;2024-01-30T01:06:14;11.07;;;5.10;;
19965;SDS011;10144;50.874;4.762;2024-01-30T01:08:46;14.67;;;5.00;;
19965;SDS011;10144;50.874;4.762;2024-01-30T01:11:15;11.20;;;4.87;;
19965;SDS011;10144;50.874;4.762;2024-01-30T01:13:44;9.73;;;5.13;;
19965;SDS011;10144;50.874;4.762;2024-01-30T01:16:12;11.30;;;4.40;;
19965;SDS011;10144;50.874;4.762;2024-01-30T01:18:43;10.70;;;4.93;;
19965;SDS011;10144;50.874;4.762;2024-01-30T01:21:10;10.93;;;5.17;;
19965;SDS011;10144;50.874;4.762;2024-01-30T01:23:36;9.97;;;4.80;;
19965;SDS011;10144;50.874;4.762;2024-01-30T01:26:11;10.93;;;4.67;;
19965;SDS011;10144;50.874;4.762;2024-01-30T01:31:11;9.47;;;5.07;;
19965;SDS011;10144;50.874;4.762;2024-01-30T01:33:37;10.53;;;5.07;;
19965;SDS011;10144;50.874;4.762;2024-01-30T01:36:03;10.70;;;4.80;;
19965;SDS011;10144;50.874;4.762;2024-01-30T01:38:31;10.03;;;5.07;;
19965;SDS011;10144;50.874;4.762;2024-01-30T01:40:57;11.43;;;4.90;;
19965;SDS011;10144;50.874;4.762;2024-01-30T01:43:25;9.03;;;4.20;;
19965;SDS011;10144;50.874;4.762;2024-01-30T01:45:51;11.30;;;4.80;;
19965;SDS011;10144;50.874;4.762;2024-01-30T01:48:23;10.07;;;4.83;;
19965;SDS011;10144;50.874;4.762;2024-01-30T01:50:49;11.70;;;4.70;;
19965;SDS011;10144;50.874;4.762;2024-01-30T01:55:47;12.80;;;5.23;;
19965;SDS011;10144;50.874;4.762;2024-01-30T01:58:19;12.47;;;4.80;;
19965;SDS011;10144;50.874;4.762;2024-01-30T02:00:52;9.73;;;4.30;;
19965;SDS011;10144;50.874;4.762;2024-01-30T02:03:20;10.23;;;4.67;;
19965;SDS011;10144;50.874;4.762;2024-01-30T02:18:46;11.17;;;4.83;;
19965;SDS011;10144;50.874;4.762;2024-01-30T02:21:15;12.60;;;5.20;;
19965;SDS011;10144;50.874;4.762;2024-01-30T02:26:12;13.13;;;5.13;;
19965;SDS011;10144;50.874;4.762;2024-01-30T02:28:47;12.40;;;4.77;;
19965;SDS011;10144;50.874;4.762;2024-01-30T02:31:18;11.17;;;4.37;;
19965;SDS011;10144;50.874;4.762;2024-01-30T02:33:47;13.03;;;4.97;;
19965;SDS011;10144;50.874;4.762;2024-01-30T02:36:15;10.23;;;4.77;;
19965;SDS011;10144;50.874;4.762;2024-01-30T02:38:41;12.40;;;5.00;;
19965;SDS011;10144;50.874;4.762;2024-01-30T02:41:06;13.57;;;4.87;;
19965;SDS011;10144;50.874;4.762;2024-01-30T02:43:35;11.63;;;5.17;;
19965;SDS011;10144;50.874;4.762;2024-01-30T02:46:04;13.77;;;5.30;;
19965;SDS011;10144;50.874;4.762;2024-01-30T02:48:38;15.17;;;5.47;;
19965;SDS011;10144;50.874;4.762;2024-01-30T02:51:11;12.50;;;5.00;;
19965;SDS011;10144;50.874;4.762;2024-01-30T02:53:43;16.27;;;5.83;;
19965;SDS011;10144;50.874;4.762;2024-01-30T02:58:40;11.40;;;4.80;;
19965;SDS011;10144;50.874;4.762;2024-01-30T03:01:06;10.10;;;4.90;;
19965;SDS011;10144;50.874;4.762;2024-01-30T03:03:32;12.50;;;4.40;;
19965;SDS011;10144;50.874;4.762;2024-01-30T03:06:01;11.57;;;5.10;;
19965;SDS011;10144;50.874;4.762;2024-01-30T03:10:57;11.97;;;4.77;;
19965;SDS011;10144;50.874;4.762;2024-01-30T03:13:28;14.00;;;4.60;;
19965;SDS011;10144;50.874;4.762;2024-01-30T03:15:57;12.03;;;4.90;;
19965;SDS011;10144;50.874;4.762;2024-01-30T03:20:56;8.77;;;4.80;;
19965;SDS011;10144;50.874;4.762;2024-01-30T03:23:32;8.13;;;4.37;;
19965;SDS011;10144;50.874;4.762;2024-01-30T03:26:01;11.37;;;4.20;;
19965;SDS011;10144;50.874;4.762;2024-01-30T03:28:29;11.70;;;4.60;;
19965;SDS011;10144;50.874;4.762;2024-01-30T03:33:24;11.60;;;4.90;;
19965;SDS011;10144;50.874;4.762;2024-01-30T03:36:03;10.53;;;4.93;;
19965;SDS011;10144;50.874;4.762;2024-01-30T03:38:33;10.40;;;4.70;;
19965;SDS011;10144;50.874;4.762;2024-01-30T03:43:27;11.43;;;4.80;;
19965;SDS011;10144;50.874;4.762;2024-01-30T03:45:56;8.83;;;4.57;;
19965;SDS011;10144;50.874;4.762;2024-01-30T03:48:23;12.37;;;4.90;;
19965;SDS011;10144;50.874;4.762;2024-01-30T03:50:55;9.57;;;4.60;;
19965;SDS011;10144;50.874;4.762;2024-01-30T03:53:24;10.30;;;4.57;;
19965;SDS011;10144;50.874;4.762;2024-01-30T03:55:52;10.00;;;4.80;;
19965;SDS011;10144;50.874;4.762;2024-01-30T04:03:22;11.67;;;4.83;;
19965;SDS011;10144;50.874;4.762;2024-01-30T04:05:48;9.57;;;4.70;;
19965;SDS011;10144;50.874;4.762;2024-01-30T04:08:14;13.97;;;4.80;;
19965;SDS011;10144;50.874;4.762;2024-01-30T04:10:41;10.10;;;4.73;;
19965;SDS011;10144;50.874;4.762;2024-01-30T04:13:08;8.83;;;4.63;;
19965;SDS011;10144;50.874;4.762;2024-01-30T04:18:09;14.30;;;5.10;;
19965;SDS011;10144;50.874;4.762;2024-01-30T04:23:05;10.97;;;4.20;;
19965;SDS011;10144;50.874;4.762;2024-01-30T04:25:32;10.77;;;4.90;;
19965;SDS011;10144;50.874;4.762;2024-01-30T04:27:57;9.47;;;4.70;;
19965;SDS011;10144;50.874;4.762;2024-01-30T04:30:26;10.77;;;5.10;;
19965;SDS011;10144;50.874;4.762;2024-01-30T04:32:58;12.87;;;4.60;;
19965;SDS011;10144;50.874;4.762;2024-01-30T04:37:52;9.93;;;4.93;;
19965;SDS011;10144;50.874;4.762;2024-01-30T04:40:21;10.97;;;4.47;;
19965;SDS011;10144;50.874;4.762;2024-01-30T04:42:51;11.70;;;4.60;;
19965;SDS011;10144;50.874;4.762;2024-01-30T04:55:37;12.37;;;4.87;;
19965;SDS011;10144;50.874;4.762;2024-01-30T04:58:09;9.63;;;4.80;;
19965;SDS011;10144;50.874;4.762;2024-01-30T05:00:38;11.00;;;5.07;;
19965;SDS011;10144;50.874;4.762;2024-01-30T05:03:12;10.60;;;4.90;;
19965;SDS011;10144;50.874;4.762;2024-01-30T05:05:38;10.90;;;4.80;;
19965;SDS011;10144;50.874;4.762;2024-01-30T05:08:03;10.00;;;5.40;;
19965;SDS011;10144;50.874;4.762;2024-01-30T05:13:08;11.03;;;5.03;;
19965;SDS011;10144;50.874;4.762;2024-01-30T05:15:34;10.30;;;4.43;;
19965;SDS011;10144;50.874;4.762;2024-01-30T05:18:02;11.33;;;5.20;;
19965;SDS011;10144;50.874;4.762;2024-01-30T05:23:00;11.40;;;5.27;;
19965;SDS011;10144;50.874;4.762;2024-01-30T05:25:32;14.20;;;5.53;;
19965;SDS011;10144;50.874;4.762;2024-01-30T05:28:01;10.10;;;5.30;;
19965;SDS011;10144;50.874;4.762;2024-01-30T05:30:31;10.37;;;5.07;;
19965;SDS011;10144;50.874;4.762;2024-01-30T05:32:59;12.50;;;4.90;;
19965;SDS011;10144;50.874;4.762;2024-01-30T05:35:24;11.40;;;4.90;;
19965;SDS011;10144;50.874;4.762;2024-01-30T05:37:50;11.00;;;5.20;;
19965;SDS011;10144;50.874;4.762;2024-01-30T05:40:16;9.07;;;4.90;;
19965;SDS011;10144;50.874;4.762;2024-01-30T05:42:42;11.40;;;5.60;;
19965;SDS011;10144;50.874;4.762;2024-01-30T05:45:08;11.73;;;5.17;;
19965;SDS011;10144;50.874;4.762;2024-01-30T05:47:34;12.67;;;5.27;;
19965;SDS011;10144;50.874;4.762;2024-01-30T05:50:04;12.33;;;4.90;;
19965;SDS011;10144;50.874;4.762;2024-01-30T05:52:30;12.17;;;5.43;;
19965;SDS011;10144;50.874;4.762;2024-01-30T05:54:56;13.10;;;5.30;;
19965;SDS011;10144;50.874;4.762;2024-01-30T05:57:22;12.33;;;5.50;;
19965;SDS011;10144;50.874;4.762;2024-01-30T05:59:53;11.77;;;5.50;;
19965;SDS011;10144;50.874;4.762;2024-01-30T06:02:21;14.87;;;5.40;;
19965;SDS011;10144;50.874;4.762;2024-01-30T06:04:47;11.47;;;5.43;;
19965;SDS011;10144;50.874;4.762;2024-01-30T06:07:14;11.47;;;5.30;;
19965;SDS011;10144;50.874;4.762;2024-01-30T06:09:41;12.33;;;5.23;;
19965;SDS011;10144;50.874;4.762;2024-01-30T06:12:09;10.73;;;5.20;;
19965;SDS011;10144;50.874;4.762;2024-01-30T06:14:37;14.40;;;5.17;;
19965;SDS011;10144;50.874;4.762;2024-01-30T06:17:09;12.20;;;4.90;;
19965;SDS011;10144;50.874;4.762;2024-01-30T06:19:37;10.43;;;5.33;;
19965;SDS011;10144;50.874;4.762;2024-01-30T06:22:06;11.43;;;5.23;;
19965;SDS011;10144;50.874;4.762;2024-01-30T06:24:33;12.77;;;5.67;;
19965;SDS011;10144;50.874;4.762;2024-01-30T06:27:03;12.17;;;5.00;;
19965;SDS011;10144;50.874;4.762;2024-01-30T06:29:31;10.77;;;5.37;;
19965;SDS011;10144;50.874;4.762;2024-01-30T06:37:00;13.17;;;5.40;;
19965;SDS011;10144;50.874;4.762;2024-01-30T06:39:29;12.77;;;5.60;;
19965;SDS011;10144;50.874;4.762;2024-01-30T06:41:57;10.83;;;5.70;;
19965;SDS011;10144;50.874;4.762;2024-01-30T06:46:52;10.30;;;5.53;;
19965;SDS011;10144;50.874;4.762;2024-01-30T06:49:18;12.47;;;5.97;;
19965;SDS011;10144;50.874;4.762;2024-01-30T06:51:47;15.63;;;6.07;;
19965;SDS011;10144;50.874;4.762;2024-01-30T06:56:45;11.63;;;5.43;;
19965;SDS011;10144;50.874;4.762;2024-01-30T06:59:11;15.70;;;6.00;;
19965;SDS011;10144;50.874;4.762;2024-01-30T07:01:39;10.77;;;5.50;;
19965;SDS011;10144;50.874;4.762;2024-01-30T07:06:37;15.13;;;5.40;;
19965;SDS011;10144;50.874;4.762;2024-01-30T07:09:03;12.73;;;5.80;;
19965;SDS011;10144;50.874;4.762;2024-01-30T07:11:31;12.57;;;5.70;;
19965;SDS011;10144;50.874;4.762;2024-01-30T07:13:58;12.43;;;5.60;;
19965;SDS011;10144;50.874;4.762;2024-01-30T07:16:30;16.10;;;6.20;;
19965;SDS011;10144;50.874;4.762;2024-01-30T07:18:59;13.73;;;5.67;;
19965;SDS011;10144;50.874;4.762;2024-01-30T07:21:27;12.20;;;5.80;;
19965;SDS011;10144;50.874;4.762;2024-01-30T07:23:59;13.13;;;5.90;;
19965;SDS011;10144;50.874;4.762;2024-01-30T07:26:25;15.23;;;6.20;;
19965;SDS011;10144;50.874;4.762;2024-01-30T07:31:21;16.63;;;6.13;;
19965;SDS011;10144;50.874;4.762;2024-01-30T07:33:49;15.20;;;6.60;;
19965;SDS011;10144;50.874;4.762;2024-01-30T07:36:18;15.77;;;6.30;;
19965;SDS011;10144;50.874;4.762;2024-01-30T07:38:43;12.40;;;6.10;;
19965;SDS011;10144;50.874;4.762;2024-01-30T07:41:11;15.60;;;6.00;;
19965;SDS011;10144;50.874;4.762;2024-01-30T07:43:42;14.67;;;5.70;;
19965;SDS011;10144;50.874;4.762;2024-01-30T07:46:10;14.70;;;5.80;;
19965;SDS011;10144;50.874;4.762;2024-01-30T07:48:35;16.17;;;6.10;;
19965;SDS011;10144;50.874;4.762;2024-01-30T07:53:32;15.80;;;6.17;;
19965;SDS011;10144;50.874;4.762;2024-01-30T07:55:58;16.27;;;6.00;;
19965;SDS011;10144;50.874;4.762;2024-01-30T07:58:26;14.87;;;6.43;;
19965;SDS011;10144;50.874;4.762;2024-01-30T08:03:45;14.33;;;6.43;;
19965;SDS011;10144;50.874;4.762;2024-01-30T08:06:14;15.80;;;6.27;;
19965;SDS011;10144;50.874;4.762;2024-01-30T08:08:42;18.10;;;6.50;;
19965;SDS011;10144;50.874;4.762;2024-01-30T08:11:11;16.17;;;6.33;;
19965;SDS011;10144;50.874;4.762;2024-01-30T08:13:37;15.27;;;6.83;;
19965;SDS011;10144;50.874;4.762;2024-01-30T08:16:04;13.93;;;6.33;;
19965;SDS011;10144;50.874;4.762;2024-01-30T08:18:32;16.67;;;6.30;;
19965;SDS011;10144;50.874;4.762;2024-01-30T08:21:10;13.87;;;6.00;;
19965;SDS011;10144;50.874;4.762;2024-01-30T08:26:05;14.03;;;5.80;;
19965;SDS011;10144;50.874;4.762;2024-01-30T08:28:31;13.00;;;6.10;;
19965;SDS011;10144;50.874;4.762;2024-01-30T08:31:00;13.47;;;5.73;;
19965;SDS011;10144;50.874;4.762;2024-01-30T08:35:54;16.97;;;6.57;;
19965;SDS011;10144;50.874;4.762;2024-01-30T08:38:20;17.03;;;6.53;;
19965;SDS011;10144;50.874;4.762;2024-01-30T08:40:52;17.17;;;5.83;;
19965;SDS011;10144;50.874;4.762;2024-01-30T08:43:17;13.90;;;5.93;;
19965;SDS011;10144;50.874;4.762;2024-01-30T08:45:44;12.00;;;5.87;;
19965;SDS011;10144;50.874;4.762;2024-01-30T08:48:25;14.53;;;5.80;;
19965;SDS011;10144;50.874;4.762;2024-01-30T08:50:51;14.73;;;5.87;;
19965;SDS011;10144;50.874;4.762;2024-01-30T08:53:20;18.67;;;6.03;;
19965;SDS011;10144;50.874;4.762;2024-01-30T08:55:49;12.83;;;5.80;;
19965;SDS011;10144;50.874;4.762;2024-01-30T08:58:15;11.20;;;5.97;;
19965;SDS011;10144;50.874;4.762;2024-01-30T09:00:45;13.83;;;5.70;;
19965;SDS011;10144;50.874;4.762;2024-01-30T09:05:40;14.43;;;6.10;;
19965;SDS011;10144;50.874;4.762;2024-01-30T09:08:12;15.47;;;6.33;;
19965;SDS011;10144;50.874;4.762;2024-01-30T09:10:38;14.93;;;6.03;;
19965;SDS011;10144;50.874;4.762;2024-01-30T09:13:05;14.60;;;6.10;;
19965;SDS011;10144;50.874;4.762;2024-01-30T09:15:34;13.90;;;6.03;;
19965;SDS011;10144;50.874;4.762;2024-01-30T09:18:00;13.60;;;5.57;;
19965;SDS011;10144;50.874;4.762;2024-01-30T09:23:18;12.23;;;6.40;;
19965;SDS011;10144;50.874;4.762;2024-01-30T09:25:48;15.77;;;6.43;;
19965;SDS011;10144;50.874;4.762;2024-01-30T09:28:20;13.65;;;5.97;;
19965;SDS011;10144;50.874;4.762;2024-01-30T09:30:51;14.27;;;5.80;;
19965;SDS011;10144;50.874;4.762;2024-01-30T09:33:20;14.17;;;5.93;;
19965;SDS011;10144;50.874;4.762;2024-01-30T09:35:49;11.47;;;5.40;;
19965;SDS011;10144;50.874;4.762;2024-01-30T09:40:51;17.75;;;6.50;;
19965;SDS011;10144;50.874;4.762;2024-01-30T09:43:23;14.10;;;5.60;;
19965;SDS011;10144;50.874;4.762;2024-01-30T09:45:52;24.58;;;6.18;;
19965;SDS011;10144;50.874;4.762;2024-01-30T09:48:20;18.08;;;6.15;;
19965;SDS011;10144;50.874;4.762;2024-01-30T09:50:52;15.55;;;5.95;;
19965;SDS011;10144;50.874;4.762;2024-01-30T09:53:35;14.88;;;6.28;;
19965;SDS011;10144;50.874;4.762;2024-01-30T09:56:03;19.93;;;6.57;;
19965;SDS011;10144;50.874;4.762;2024-01-30T09:58:31;15.03;;;6.00;;
19965;SDS011;10144;50.874;4.762;2024-01-30T10:03:29;18.43;;;7.00;;
19965;SDS011;10144;50.874;4.762;2024-01-30T10:05:54;13.33;;;6.00;;
19965;SDS011;10144;50.874;4.762;2024-01-30T10:08:21;13.57;;;6.55;;
19965;SDS011;10144;50.874;4.762;2024-01-30T10:10:50;14.82;;;6.13;;
19965;SDS011;10144;50.874;4.762;2024-01-30T10:18:17;17.60;;;6.53;;
19965;SDS011;10144;50.874;4.762;2024-01-30T10:23:14;15.98;;;6.72;;
19965;SDS011;10144;50.874;4.762;2024-01-30T10:25:46;15.18;;;6.93;;
19965;SDS011;10144;50.874;4.762;2024-01-30T10:28:15;16.27;;;6.80;;
19965;SDS011;10144;50.874;4.762;2024-01-30T10:33:09;14.63;;;6.88;;
19965;SDS011;10144;50.874;4.762;2024-01-30T10:38:05;16.05;;;7.47;;
19965;SDS011;10144;50.874;4.762;2024-01-30T10:40:38;23.23;;;7.50;;
19965;SDS011;10144;50.874;4.762;2024-01-30T10:46:22;20.60;;;7.75;;
19965;SDS011;10144;50.874;4.762;2024-01-30T10:49:00;25.48;;;8.20;;
19965;SDS011;10144;50.874;4.762;2024-01-30T10:51:32;19.70;;;7.38;;
19965;SDS011;10144;50.874;4.762;2024-01-30T10:54:01;17.42;;;7.50;;
19965;SDS011;10144;50.874;4.762;2024-01-30T10:56:30;28.27;;;7.78;;
19965;SDS011;10144;50.874;4.762;2024-01-30T10:58:58;18.92;;;8.30;;
19965;SDS011;10144;50.874;4.762;2024-01-30T11:01:27;21.75;;;7.63;;
19965;SDS011;10144;50.874;4.762;2024-01-30T11:06:30;19.80;;;7.47;;
19965;SDS011;10144;50.874;4.762;2024-01-30T11:09:03;21.27;;;8.23;;
19965;SDS011;10144;50.874;4.762;2024-01-30T11:17:03;19.13;;;7.90;;
19965;SDS011;10144;50.874;4.762;2024-01-30T11:19:32;19.83;;;6.93;;
19965;SDS011;10144;50.874;4.762;2024-01-30T11:22:01;17.40;;;7.40;;
19965;SDS011;10144;50.874;4.762;2024-01-30T11:24:29;18.80;;;6.80;;
19965;SDS011;10144;50.874;4.762;2024-01-30T11:29:32;16.70;;;6.35;;
19965;SDS011;10144;50.874;4.762;2024-01-30T11:32:06;16.42;;;5.45;;
19965;SDS011;10144;50.874;4.762;2024-01-30T11:34:40;14.13;;;5.40;;
19965;SDS011;10144;50.874;4.762;2024-01-30T11:37:09;18.80;;;5.85;;
19965;SDS011;10144;50.874;4.762;2024-01-30T11:42:09;17.13;;;5.60;;
19965;SDS011;10144;50.874;4.762;2024-01-30T11:44:46;15.57;;;4.90;;
19965;SDS011;10144;50.874;4.762;2024-01-30T11:47:12;15.50;;;5.32;;
19965;SDS011;10144;50.874;4.762;2024-01-30T11:49:43;15.17;;;5.10;;
19965;SDS011;10144;50.874;4.762;2024-01-30T11:52:09;12.60;;;4.90;;
19965;SDS011;10144;50.874;4.762;2024-01-30T11:54:41;11.65;;;4.60;;
19965;SDS011;10144;50.874;4.762;2024-01-30T11:59:39;13.05;;;4.80;;
19965;SDS011;10144;50.874;4.762;2024-01-30T12:02:08;9.68;;;3.50;;
19965;SDS011;10144;50.874;4.762;2024-01-30T12:04:34;10.98;;;3.72;;
19965;SDS011;10144;50.874;4.762;2024-01-30T12:09:31;10.32;;;2.42;;
19965;SDS011;10144;50.874;4.762;2024-01-30T12:16:59;3.88;;;1.60;;
19965;SDS011;10144;50.874;4.762;2024-01-30T12:19:28;5.05;;;1.70;;
19965;SDS011;10144;50.874;4.762;2024-01-30T12:21:57;8.77;;;1.50;;
19965;SDS011;10144;50.874;4.762;2024-01-30T12:24:24;3.92;;;1.35;;
19965;SDS011;10144;50.874;4.762;2024-01-30T12:26:56;7.40;;;1.65;;
19965;SDS011;10144;50.874;4.762;2024-01-30T12:31:57;3.22;;;1.25;;
19965;SDS011;10144;50.874;4.762;2024-01-30T12:34:26;4.47;;;1.13;;
19965;SDS011;10144;50.874;4.762;2024-01-30T12:36:55;7.00;;;1.23;;
19965;SDS011;10144;50.874;4.762;2024-01-30T12:39:32;4.03;;;1.00;;
19965;SDS011;10144;50.874;4.762;2024-01-30T12:41:58;5.88;;;1.23;;
19965;SDS011;10144;50.874;4.762;2024-01-30T12:44:25;5.07;;;1.00;;
19965;SDS011;10144;50.874;4.762;2024-01-30T12:46:51;4.75;;;0.80;;
19965;SDS011;10144;50.874;4.762;2024-01-30T12:49:32;3.13;;;0.80;;
19965;SDS011;10144;50.874;4.762;2024-01-30T12:51:58;2.38;;;0.85;;
19965;SDS011;10144;50.874;4.762;2024-01-30T12:54:28;3.83;;;0.85;;
19965;SDS011;10144;50.874;4.762;2024-01-30T12:56:57;3.53;;;0.80;;
19965;SDS011;10144;50.874;4.762;2024-01-30T12:59:23;1.65;;;0.80;;
19965;SDS011;10144;50.874;4.762;2024-01-30T13:01:49;3.17;;;0.70;;
19965;SDS011;10144;50.874;4.762;2024-01-30T13:04:15;1.45;;;0.57;;
19965;SDS011;10144;50.874;4.762;2024-01-30T13:06:44;3.88;;;0.65;;
19965;SDS011;10144;50.874;4.762;2024-01-30T13:09:10;5.63;;;0.70;;
19965;SDS011;10144;50.874;4.762;2024-01-30T13:14:06;5.47;;;0.93;;
19965;SDS011;10144;50.874;4.762;2024-01-30T13:16:32;1.60;;;0.63;;
19965;SDS011;10144;50.874;4.762;2024-01-30T13:19:01;0.93;;;0.50;;
19965;SDS011;10144;50.874;4.762;2024-01-30T13:21:27;1.73;;;0.52;;
19965;SDS011;10144;50.874;4.762;2024-01-30T13:23:53;3.28;;;0.57;;
19965;SDS011;10144;50.874;4.762;2024-01-30T13:26:28;1.63;;;0.60;;
19965;SDS011;10144;50.874;4.762;2024-01-30T13:28:58;5.30;;;0.95;;
19965;SDS011;10144;50.874;4.762;2024-01-30T13:31:27;2.17;;;0.60;;
19965;SDS011;10144;50.874;4.762;2024-01-30T13:33:53;4.35;;;0.70;;
19965;SDS011;10144;50.874;4.762;2024-01-30T13:38:49;4.18;;;0.70;;
19965;SDS011;10144;50.874;4.762;2024-01-30T13:43:47;11.05;;;1.00;;
19965;SDS011;10144;50.874;4.762;2024-01-30T13:46:12;4.20;;;0.82;;
19965;SDS011;10144;50.874;4.762;2024-01-30T13:48:44;1.88;;;0.63;;
19965;SDS011;10144;50.874;4.762;2024-01-30T13:51:12;5.55;;;0.75;;
19965;SDS011;10144;50.874;4.762;2024-01-30T13:53:44;3.70;;;0.88;;
19965;SDS011;10144;50.874;4.762;2024-01-30T13:56:10;3.72;;;1.00;;
19965;SDS011;10144;50.874;4.762;2024-01-30T13:58:37;3.40;;;1.02;;
19965;SDS011;10144;50.874;4.762;2024-01-30T14:01:12;5.38;;;0.90;;
19965;SDS011;10144;50.874;4.762;2024-01-30T14:06:12;5.85;;;1.05;;
19965;SDS011;10144;50.874;4.762;2024-01-30T14:08:42;3.08;;;1.10;;
19965;SDS011;10144;50.874;4.762;2024-01-30T14:11:11;7.95;;;1.20;;
19965;SDS011;10144;50.874;4.762;2024-01-30T14:13:36;5.85;;;0.95;;
19965;SDS011;10144;50.874;4.762;2024-01-30T14:18:31;6.85;;;0.95;;
19965;SDS011;10144;50.874;4.762;2024-01-30T14:21:00;9.57;;;1.17;;
19965;SDS011;10144;50.874;4.762;2024-01-30T14:25:55;4.20;;;0.93;;
19965;SDS011;10144;50.874;4.762;2024-01-30T14:28:26;3.13;;;0.90;;
19965;SDS011;10144;50.874;4.762;2024-01-30T14:30:55;1.98;;;0.70;;
19965;SDS011;10144;50.874;4.762;2024-01-30T14:33:26;5.18;;;1.10;;
19965;SDS011;10144;50.874;4.762;2024-01-30T14:35:54;5.72;;;0.93;;
19965;SDS011;10144;50.874;4.762;2024-01-30T14:38:23;3.80;;;1.10;;
19965;SDS011;10144;50.874;4.762;2024-01-30T14:40:50;7.50;;;1.37;;
19965;SDS011;10144;50.874;4.762;2024-01-30T14:43:17;4.47;;;0.90;;
19965;SDS011;10144;50.874;4.762;2024-01-30T14:45:43;9.52;;;1.40;;
19965;SDS011;10144;50.874;4.762;2024-01-30T14:48:16;6.77;;;1.27;;
19965;SDS011;10144;50.874;4.762;2024-01-30T14:53:15;7.93;;;0.90;;
19965;SDS011;10144;50.874;4.762;2024-01-30T14:58:10;5.07;;;0.70;;
19965;SDS011;10144;50.874;4.762;2024-01-30T15:00:39;2.80;;;1.00;;
19965;SDS011;10144;50.874;4.762;2024-01-30T15:03:05;4.97;;;0.90;;
19965;SDS011;10144;50.874;4.762;2024-01-30T15:05:34;3.10;;;0.70;;
19965;SDS011;10144;50.874;4.762;2024-01-30T15:10:29;8.73;;;1.00;;
19965;SDS011;10144;50.874;4.762;2024-01-30T15:13:01;6.53;;;0.90;;
19965;SDS011;10144;50.874;4.762;2024-01-30T15:17:59;4.37;;;0.90;;
19965;SDS011;10144;50.874;4.762;2024-01-30T15:22:57;4.43;;;1.00;;
19965;SDS011;10144;50.874;4.762;2024-01-30T15:25:29;6.13;;;1.17;;
19965;SDS011;10144;50.874;4.762;2024-01-30T15:27:57;5.00;;;0.90;;
19965;SDS011;10144;50.874;4.762;2024-01-30T15:30:26;5.60;;;1.10;;
19965;SDS011;10144;50.874;4.762;2024-01-30T15:32:52;5.13;;;1.10;;
19965;SDS011;10144;50.874;4.762;2024-01-30T15:37:46;5.00;;;1.00;;
19965;SDS011;10144;50.874;4.762;2024-01-30T15:40:13;6.50;;;1.27;;
19965;SDS011;10144;50.874;4.762;2024-01-30T15:42:42;3.83;;;1.00;;
19965;SDS011;10144;50.874;4.762;2024-01-30T15:45:14;5.03;;;1.00;;
19965;SDS011;10144;50.874;4.762;2024-01-30T15:50:10;7.53;;;1.10;;
19965;SDS011;10144;50.874;4.762;2024-01-30T15:52:36;4.93;;;1.00;;
19965;SDS011;10144;50.874;4.762;2024-01-30T15:57:31;5.40;;;1.20;;
19965;SDS011;10144;50.874;4.762;2024-01-30T15:59:58;5.80;;;1.03;;
19965;SDS011;10144;50.874;4.762;2024-01-30T16:02:29;4.30;;;0.93;;
19965;SDS011;10144;50.874;4.762;2024-01-30T16:04:55;6.77;;;1.50;;
19965;SDS011;10144;50.874;4.762;2024-01-30T16:07:21;3.53;;;1.00;;
19965;SDS011;10144;50.874;4.762;2024-01-30T16:09:47;4.17;;;0.90;;
19965;SDS011;10144;50.874;4.762;2024-01-30T16:12:14;4.87;;;1.47;;
19965;SDS011;10144;50.874;4.762;2024-01-30T16:14:43;6.73;;;1.27;;
19965;SDS011;10144;50.874;4.762;2024-01-30T16:17:10;11.13;;;1.20;;
19965;SDS011;10144;50.874;4.762;2024-01-30T16:19:42;7.37;;;1.13;;
19965;SDS011;10144;50.874;4.762;2024-01-30T16:22:10;4.03;;;1.10;;
19965;SDS011;10144;50.874;4.762;2024-01-30T16:27:30;5.30;;;1.10;;
19965;SDS011;10144;50.874;4.762;2024-01-30T16:32:25;4.67;;;1.03;;
19965;SDS011;10144;50.874;4.762;2024-01-30T16:34:51;5.13;;;1.30;;
19965;SDS011;10144;50.874;4.762;2024-01-30T16:37:19;4.30;;;1.10;;
19965;SDS011;10144;50.874;4.762;2024-01-30T16:39:48;2.33;;;1.10;;
19965;SDS011;10144;50.874;4.762;2024-01-30T16:42:20;4.83;;;1.10;;
19965;SDS011;10144;50.874;4.762;2024-01-30T16:44:53;5.90;;;1.67;;
19965;SDS011;10144;50.874;4.762;2024-01-30T16:47:20;6.07;;;1.40;;
19965;SDS011;10144;50.874;4.762;2024-01-30T16:49:53;7.00;;;1.40;;
19965;SDS011;10144;50.874;4.762;2024-01-30T16:52:19;5.70;;;1.50;;
19965;SDS011;10144;50.874;4.762;2024-01-30T16:54:45;5.20;;;1.50;;
19965;SDS011;10144;50.874;4.762;2024-01-30T16:57:11;4.27;;;1.40;;
19965;SDS011;10144;50.874;4.762;2024-01-30T16:59:40;6.00;;;1.63;;
19965;SDS011;10144;50.874;4.762;2024-01-30T17:02:13;5.97;;;2.00;;
19965;SDS011;10144;50.874;4.762;2024-01-30T17:04:39;4.27;;;1.30;;
19965;SDS011;10144;50.874;4.762;2024-01-30T17:07:08;3.77;;;1.50;;
19965;SDS011;10144;50.874;4.762;2024-01-30T17:09:34;5.80;;;1.40;;
19965;SDS011;10144;50.874;4.762;2024-01-30T17:12:03;5.70;;;1.80;;
19965;SDS011;10144;50.874;4.762;2024-01-30T17:17:01;10.03;;;2.00;;
19965;SDS011;10144;50.874;4.762;2024-01-30T17:19:36;4.97;;;2.00;;
19965;SDS011;10144;50.874;4.762;2024-01-30T17:22:08;7.03;;;2.10;;
19965;SDS011;10144;50.874;4.762;2024-01-30T17:24:35;8.23;;;2.20;;
19965;SDS011;10144;50.874;4.762;2024-01-30T17:29:30;9.00;;;2.50;;
19965;SDS011;10144;50.874;4.762;2024-01-30T17:31:57;13.50;;;3.27;;
19965;SDS011;10144;50.874;4.762;2024-01-30T17:34:26;18.03;;;3.30;;
19965;SDS011;10144;50.874;4.762;2024-01-30T17:36:58;9.57;;;3.10;;
19965;SDS011;10144;50.874;4.762;2024-01-30T17:39:27;8.90;;;3.50;;
19965;SDS011;10144;50.874;4.762;2024-01-30T17:41:53;12.40;;;4.03;;
19965;SDS011;10144;50.874;4.762;2024-01-30T17:44:22;12.40;;;3.83;;
19965;SDS011;10144;50.874;4.762;2024-01-30T17:49:51;8.37;;;3.37;;
19965;SDS011;10144;50.874;4.762;2024-01-30T17:58:25;11.33;;;3.90;;
19965;SDS011;10144;50.874;4.762;2024-01-30T18:04:06;11.30;;;3.43;;
19965;SDS011;10144;50.874;4.762;2024-01-30T18:09:03;13.37;;;3.50;;
19965;SDS011;10144;50.874;4.762;2024-01-30T18:14:09;17.97;;;4.20;;
19965;SDS011;10144;50.874;4.762;2024-01-30T18:16:37;7.40;;;3.27;;